Time;durP1;ratioP1;P1;durP2;ratioP2;P2;SDS_P1;SDS_P2;PMS_P1;PMS_P2;Temp;Humidity;BMP_temperature;BMP_pressure;BME280_temperature;BME280_humidity;BME280_pressure;Samples;Min_cycle;Max_cycle;Signal;HPM_P1;HPM_P2
2023/05/06 00:00:12;;;;;;;12.70;7.90;;;;;;;17.53;66.90;101699.44;4980733;28;20090;-43
2023/05/06 00:02:37;;;;;;;11.93;8.02;;;;;;;17.61;66.54;101695.06;4984571;28;20165;-44
2023/05/06 00:05:03;;;;;;;13.00;7.97;;;;;;;17.64;66.20;101700.31;4984054;28;20034;-44
2023/05/06 00:07:29;;;;;;;12.50;7.95;;;;;;;17.65;66.51;101699.44;4981084;28;20125;-43
2023/05/06 00:09:54;;;;;;;13.93;8.48;;;;;;;17.65;66.42;101698.56;4983825;28;20030;-43
2023/05/06 00:12:19;;;;;;;15.48;8.73;;;;;;;17.56;66.48;101691.53;4980339;28;20049;-44
2023/05/06 00:14:44;;;;;;;15.85;8.75;;;;;;;17.48;66.97;101695.06;4983783;28;20117;-47
2023/05/06 00:17:10;;;;;;;15.90;9.15;;;;;;;17.22;68.27;101685.41;4980212;28;20026;-44
2023/05/06 00:19:35;;;;;;;16.05;9.50;;;;;;;17.39;68.07;101688.91;4984365;28;20027;-43
2023/05/06 00:22:00;;;;;;;16.13;8.98;;;;;;;17.56;67.70;101688.00;4984119;28;20042;-46
2023/05/06 00:24:26;;;;;;;15.48;9.10;;;;;;;17.68;67.44;101680.97;4980143;28;20474;-43
2023/05/06 00:26:52;;;;;;;15.43;9.50;;;;;;;17.62;67.81;101685.41;4996915;23;20129;-45
2023/05/06 00:29:17;;;;;;;15.55;9.85;;;;;;;17.73;67.96;101683.59;4979051;28;20030;-43
2023/05/06 00:31:44;;;;;;;14.93;9.27;;;;;;;17.75;67.69;101679.19;4982513;28;20053;-42
2023/05/06 00:34:09;;;;;;;14.90;9.52;;;;;;;17.94;66.98;101672.94;4978974;28;20400;-37
2023/05/06 00:36:35;;;;;;;14.65;8.98;;;;;;;18.04;66.09;101679.97;4982034;28;20027;-40
2023/05/06 00:39:00;;;;;;;13.73;9.00;;;;;;;18.04;66.05;101681.72;4982192;28;20034;-42
2023/05/06 00:41:30;;;;;;;15.50;9.65;;;;;;;17.86;66.43;101677.41;4979142;28;20041;-41
2023/05/06 00:43:55;;;;;;;14.13;9.40;;;;;;;17.98;66.29;101685.28;4982474;28;20044;-41
2023/05/06 00:46:20;;;;;;;13.15;8.55;;;;;;;18.02;66.18;101678.22;4979062;28;20034;-41
2023/05/06 00:48:46;;;;;;;16.10;9.48;;;;;;;18.05;66.11;101668.50;4982429;28;20409;-43
2023/05/06 00:51:12;;;;;;;15.18;10.23;;;;;;;18.04;66.27;101672.06;4978840;28;20425;-40
2023/05/06 00:53:37;;;;;;;14.90;9.85;;;;;;;18.04;66.15;101666.78;4983014;28;20049;-40
2023/05/06 00:56:03;;;;;;;16.92;10.18;;;;;;;18.04;65.90;101660.63;4982494;28;20038;-41
2023/05/06 00:58:28;;;;;;;15.35;9.82;;;;;;;17.96;65.93;101663.28;4978981;28;20450;-41
2023/05/06 01:00:54;;;;;;;16.25;10.48;;;;;;;17.76;66.26;101655.44;4982339;28;20035;-41
2023/05/06 01:03:19;;;;;;;16.48;10.38;;;;;;;17.70;66.49;101649.31;4979652;28;20038;-44
2023/05/06 01:06:17;;;;;;;14.90;10.20;;;;;;;17.78;66.09;101658.09;4984766;28;20033;-43
2023/05/06 01:08:56;;;;;;;16.27;11.00;;;;;;;17.47;66.98;101656.38;4983673;28;20038;-41
2023/05/06 01:11:32;;;;;;;17.45;10.35;;;;;;;17.69;65.90;101661.63;4981260;28;20046;-43
2023/05/06 01:14:03;;;;;;;15.45;10.10;;;;;;;17.63;65.80;101664.28;4981571;28;20125;-42
2023/05/06 01:16:30;;;;;;;15.95;10.55;;;;;;;17.52;66.32;101658.13;4979851;28;20038;-41
2023/05/06 01:18:58;;;;;;;15.75;10.63;;;;;;;17.49;66.32;101662.53;4982885;28;20088;-45
2023/05/06 01:21:33;;;;;;;17.52;10.90;;;;;;;17.45;66.51;101661.66;4979695;28;20030;-43
2023/05/06 01:23:59;;;;;;;15.15;10.13;;;;;;;17.44;66.15;101662.56;4985282;28;20042;-39
2023/05/06 01:26:25;;;;;;;16.42;10.25;;;;;;;17.36;66.30;101661.69;4983675;28;20114;-40
2023/05/06 01:28:51;;;;;;;16.30;10.73;;;;;;;17.29;66.52;101660.81;4983631;28;20508;-42
2023/05/06 01:31:23;;;;;;;17.20;10.43;;;;;;;17.27;66.51;101659.94;4979127;28;20049;-42
2023/05/06 01:33:58;;;;;;;17.73;11.00;;;;;;;17.22;66.50;101660.81;4983611;28;20034;-42
2023/05/06 01:36:34;;;;;;;19.83;11.02;;;;;;;17.18;66.68;101659.97;4982949;28;20571;-41
2023/05/06 01:39:11;;;;;;;19.35;10.90;;;;;;;17.20;66.85;101668.72;4987550;28;20100;-44
2023/05/06 01:41:40;;;;;;;17.67;10.98;;;;;;;17.18;66.50;101669.63;4981758;28;20419;-40
2023/05/06 01:44:07;;;;;;;16.95;11.05;;;;;;;17.12;66.77;101667.88;4985399;28;20033;-40
2023/05/06 01:46:33;;;;;;;17.13;10.77;;;;;;;17.13;66.72;101674.91;4981266;28;20576;-41
2023/05/06 01:49:02;;;;;;;15.90;10.55;;;;;;;17.08;66.96;101670.53;4986150;28;20038;-41
2023/05/06 01:51:28;;;;;;;18.73;11.38;;;;;;;17.06;66.86;101673.16;4984774;28;20054;-46
2023/05/06 01:53:53;;;;;;;16.65;10.88;;;;;;;17.01;66.90;101673.16;4987945;28;20027;-40
2023/05/06 01:56:19;;;;;;;17.85;11.15;;;;;;;16.97;67.46;101679.28;4983232;28;20034;-41
2023/05/06 01:58:44;;;;;;;18.35;11.15;;;;;;;16.96;67.12;101674.88;4985704;28;20335;-43
2023/05/06 02:01:09;;;;;;;19.98;12.38;;;;;;;16.88;67.54;101681.06;4982671;28;20049;-42
2023/05/06 02:03:36;;;;;;;19.90;12.23;;;;;;;16.87;68.04;101684.56;4986104;28;20035;-40
2023/05/06 02:06:01;;;;;;;18.00;10.95;;;;;;;16.89;67.56;101681.06;4985167;28;20097;-40
2023/05/06 02:08:26;;;;;;;19.52;12.02;;;;;;;16.85;67.47;101687.19;4981929;28;20038;-40
2023/05/06 02:10:52;;;;;;;22.65;12.15;;;;;;;16.80;67.73;101694.22;4985023;28;20519;-41
2023/05/06 02:13:18;;;;;;;18.58;11.57;;;;;;;16.81;67.61;101693.34;4981577;28;20041;-41
2023/05/06 02:15:43;;;;;;;19.27;11.85;;;;;;;16.79;67.89;101691.56;4984811;28;20038;-42
2023/05/06 02:18:09;;;;;;;18.30;11.45;;;;;;;16.79;67.89;101694.19;4982105;28;20370;-38
2023/05/06 02:20:34;;;;;;;20.73;11.90;;;;;;;16.80;67.48;101690.69;4985412;28;20041;-40
2023/05/06 02:22:59;;;;;;;19.38;12.30;;;;;;;16.74;67.73;101699.47;4985593;28;20503;-40
2023/05/06 02:25:25;;;;;;;20.27;12.07;;;;;;;16.71;67.95;101694.19;4982120;28;20136;-44
2023/05/06 02:27:50;;;;;;;18.70;11.50;;;;;;;16.70;67.50;101692.44;4985327;28;20084;-41
2023/05/06 02:30:15;;;;;;;18.17;11.60;;;;;;;16.66;67.76;101690.66;4981994;28;20053;-41
2023/05/06 02:32:41;;;;;;;19.15;12.05;;;;;;;16.67;67.95;101695.06;4985369;28;20107;-43
2023/05/06 02:35:06;;;;;;;19.10;12.38;;;;;;;16.64;67.93;101695.06;4985413;28;20121;-38
2023/05/06 02:37:32;;;;;;;20.30;12.10;;;;;;;16.64;67.94;101692.44;4981214;28;20374;-41
2023/05/06 02:39:57;;;;;;;19.50;12.20;;;;;;;16.59;67.97;101692.41;4984996;28;20041;-40
2023/05/06 02:42:22;;;;;;;22.40;13.80;;;;;;;16.49;68.25;101698.50;4981370;28;20038;-38
2023/05/06 02:44:48;;;;;;;20.08;12.52;;;;;;;16.49;68.09;101697.63;4984630;28;20069;-42
2023/05/06 02:47:13;;;;;;;20.25;12.27;;;;;;;16.45;67.96;101690.63;4981250;28;20448;-41
2023/05/06 02:49:38;;;;;;;20.00;12.48;;;;;;;16.36;68.06;101695.84;4985853;28;20519;-42
2023/05/06 02:52:03;;;;;;;20.33;12.20;;;;;;;16.34;67.79;101693.22;4985326;28;20034;-40
2023/05/06 02:54:29;;;;;;;23.35;12.80;;;;;;;16.30;67.38;101696.69;4981311;28;20117;-46
2023/05/06 02:56:54;;;;;;;23.48;13.07;;;;;;;16.17;68.15;101702.78;4984974;28;20041;-43
2023/05/06 02:59:20;;;;;;;20.33;12.68;;;;;;;16.09;68.52;101700.16;4981071;28;20045;-40
2023/05/06 03:01:46;;;;;;;24.58;13.40;;;;;;;16.09;68.28;101694.00;4984896;28;20125;-40
2023/05/06 03:04:11;;;;;;;20.60;12.63;;;;;;;16.16;68.13;101695.81;4982354;28;20169;-45
2023/05/06 03:06:37;;;;;;;20.83;12.82;;;;;;;16.12;68.28;101694.00;4985955;28;20038;-42
2023/05/06 03:09:03;;;;;;;22.00;13.20;;;;;;;16.08;68.90;101689.63;4986125;28;20026;-41
2023/05/06 03:11:30;;;;;;;24.27;13.15;;;;;;;16.16;68.90;101687.91;4982452;28;20047;-42
2023/05/06 03:13:56;;;;;;;21.00;12.85;;;;;;;16.26;68.89;101684.41;4985005;28;20041;-42
2023/05/06 03:16:21;;;;;;;21.25;12.63;;;;;;;16.26;69.07;101684.41;4980738;28;20405;-42
2023/05/06 03:18:46;;;;;;;22.48;12.63;;;;;;;16.31;68.99;101680.03;4984046;28;20389;-40
2023/05/06 03:21:12;;;;;;;22.90;13.18;;;;;;;16.31;69.18;101682.69;4980789;28;20039;-43
2023/05/06 03:23:37;;;;;;;22.60;12.85;;;;;;;16.30;68.92;101678.28;4984069;28;20045;-41
2023/05/06 03:26:02;;;;;;;22.25;12.80;;;;;;;16.32;68.72;101686.19;4983616;28;20041;-44
2023/05/06 03:28:28;;;;;;;20.73;12.82;;;;;;;16.35;69.08;101675.66;4980792;28;20483;-42
2023/05/06 03:30:53;;;;;;;23.77;13.48;;;;;;;16.38;68.57;101683.56;4984871;28;20041;-41
2023/05/06 03:33:18;;;;;;;22.80;13.65;;;;;;;16.35;68.75;101681.78;4982557;28;20034;-41
2023/05/06 03:35:44;;;;;;;22.10;12.85;;;;;;;16.37;68.78;101682.69;4984430;28;20493;-41
2023/05/06 03:38:09;;;;;;;20.90;13.05;;;;;;;16.31;68.67;101681.78;4980640;28;20092;-39
2023/05/06 03:40:34;;;;;;;23.38;13.77;;;;;;;15.98;69.31;101687.84;4983827;28;20099;-44
2023/05/06 03:43:00;;;;;;;26.13;14.73;;;;;;;15.99;69.40;101681.69;4983474;28;20077;-42
2023/05/06 03:45:25;;;;;;;25.13;14.43;;;;;;;15.97;69.23;101688.69;4981091;28;20040;-43
2023/05/06 03:47:51;;;;;;;22.38;14.02;;;;;;;15.98;68.96;101680.78;4984234;28;20121;-45
2023/05/06 03:50:16;;;;;;;25.90;13.70;;;;;;;15.97;68.99;101688.69;4983167;28;20453;-41
2023/05/06 03:52:41;;;;;;;22.98;13.63;;;;;;;15.94;68.74;101689.56;4987560;28;20361;-42
2023/05/06 03:55:07;;;;;;;23.42;13.95;;;;;;;15.85;69.05;101692.16;4987395;28;20073;-40
2023/05/06 03:57:33;;;;;;;22.23;13.40;;;;;;;15.91;69.03;101697.44;4983112;28;20067;-40
2023/05/06 03:59:58;;;;;;;21.60;12.57;;;;;;;15.96;68.95;101697.47;4983899;28;20092;-42
2023/05/06 04:02:23;;;;;;;20.85;12.20;;;;;;;15.97;69.11;101701.84;4980202;28;20428;-43
2023/05/06 04:04:49;;;;;;;24.70;13.88;;;;;;;15.95;69.45;101698.31;4983645;28;20316;-43
2023/05/06 04:07:14;;;;;;;25.40;14.95;;;;;;;15.85;70.12;101699.16;4979460;28;20062;-42
2023/05/06 04:09:40;;;;;;;25.08;14.63;;;;;;;15.97;70.39;101697.47;4982639;28;20064;-42
2023/05/06 04:12:05;;;;;;;22.45;13.00;;;;;;;16.13;70.00;101706.28;4982828;28;20130;-41
2023/05/06 04:14:31;;;;;;;28.58;15.95;;;;;;;15.98;71.00;101693.09;4979762;28;20123;-42
2023/05/06 04:16:56;;;;;;;26.35;14.07;;;;;;;16.25;70.17;101701.06;4983326;28;20054;-42
2023/05/06 04:19:22;;;;;;;24.20;14.13;;;;;;;16.33;69.91;101699.34;4980064;28;20140;-43
2023/05/06 04:21:47;;;;;;;23.05;13.35;;;;;;;16.39;69.78;101698.50;4983207;28;20132;-40
2023/05/06 04:24:14;;;;;;;22.35;13.18;;;;;;;16.47;69.62;101694.97;4980433;28;20030;-42
2023/05/06 04:26:40;;;;;;;22.35;13.25;;;;;;;16.42;69.71;101704.63;4985233;28;20050;-41
2023/05/06 04:29:06;;;;;;;24.88;14.25;;;;;;;16.39;69.59;101714.28;4986185;28;20034;-40
2023/05/06 04:31:33;;;;;;;23.17;14.27;;;;;;;16.41;69.71;101712.50;4982034;28;20041;-42
2023/05/06 04:33:59;;;;;;;26.15;15.00;;;;;;;16.32;70.24;101708.13;4985774;28;20092;-42
2023/05/06 04:36:24;;;;;;;24.98;15.43;;;;;;;16.38;70.20;101709.88;4982491;28;20022;-42
2023/05/06 04:38:51;;;;;;;24.25;14.73;;;;;;;16.48;69.74;101707.28;4983694;28;20049;-41
2023/05/06 04:41:17;;;;;;;25.45;14.60;;;;;;;16.51;69.61;101709.06;4980997;28;20030;-39
2023/05/06 04:43:42;;;;;;;24.75;15.80;;;;;;;16.51;69.64;101714.31;4984305;28;20132;-42
2023/05/06 04:46:07;;;;;;;28.73;18.35;;;;;;;16.49;69.48;101716.94;4983868;28;20381;-43
2023/05/06 04:48:34;;;;;;;29.45;17.90;;;;;;;16.48;69.64;101716.91;4980477;28;20037;-40
2023/05/06 04:50:59;;;;;;;25.55;17.42;;;;;;;16.52;69.72;101719.59;4983704;28;20120;-43
2023/05/06 04:53:24;;;;;;;26.17;15.23;;;;;;;16.58;69.71;101718.72;4980684;28;20090;-40
2023/05/06 04:55:50;;;;;;;24.40;14.50;;;;;;;16.58;69.55;101714.34;4984153;28;20042;-43
2023/05/06 04:58:15;;;;;;;24.13;13.90;;;;;;;16.62;69.98;101724.03;4980683;28;20031;-41
2023/05/06 05:00:40;;;;;;;23.48;14.52;;;;;;;16.59;69.61;101720.44;4983970;28;20046;-43
2023/05/06 05:03:06;;;;;;;24.58;14.07;;;;;;;16.67;69.79;101729.28;4984745;28;20066;-41
2023/05/06 05:05:33;;;;;;;21.55;13.60;;;;;;;16.76;69.65;101725.81;4981258;28;20034;-41
2023/05/06 05:07:58;;;;;;;23.17;13.95;;;;;;;16.76;69.66;101721.44;4984892;28;20061;-41
2023/05/06 05:10:23;;;;;;;24.52;13.95;;;;;;;16.79;69.56;101729.31;4981117;28;20038;-40
2023/05/06 05:12:49;;;;;;;21.90;13.93;;;;;;;16.85;69.34;101734.59;4984356;28;20038;-43
2023/05/06 05:15:14;;;;;;;22.80;13.38;;;;;;;16.99;69.71;101739.88;4979299;28;20499;-43
2023/05/06 05:17:39;;;;;;;21.60;13.52;;;;;;;17.06;69.13;101732.84;4983455;28;20034;-41
2023/05/06 05:20:05;;;;;;;22.52;13.77;;;;;;;17.19;68.87;101737.25;4983550;28;20081;-42
2023/05/06 05:22:31;;;;;;;21.10;13.85;;;;;;;17.26;68.34;101737.22;4981596;28;20117;-40
2023/05/06 05:24:56;;;;;;;21.52;14.05;;;;;;;17.35;67.72;101734.59;4989133;28;20074;-41
2023/05/06 05:27:22;;;;;;;19.80;12.80;;;;;;;17.60;67.58;101739.84;4985519;28;20030;-41
2023/05/06 05:29:47;;;;;;;17.63;12.05;;;;;;;17.82;67.49;101736.31;4988684;28;20034;-41
2023/05/06 05:32:13;;;;;;;20.38;12.88;;;;;;;17.78;67.66;101730.19;4984364;28;20515;-42
2023/05/06 05:34:38;;;;;;;20.85;13.82;;;;;;;18.11;67.64;101730.97;4987903;28;20176;-41
2023/05/06 05:37:03;;;;;;;19.45;13.48;;;;;;;18.28;65.68;101733.50;4986770;28;20057;-40
2023/05/06 05:39:29;;;;;;;19.98;12.88;;;;;;;18.37;65.02;101733.44;4984057;28;20046;-43
2023/05/06 05:41:54;;;;;;;18.60;12.40;;;;;;;18.80;63.82;101735.00;4987987;28;20035;-47
2023/05/06 05:44:19;;;;;;;19.83;13.60;;;;;;;19.29;62.67;101737.25;4983654;28;20085;-44
2023/05/06 05:46:45;;;;;;;19.65;13.80;;;;;;;19.51;61.67;101735.34;4986247;28;20084;-42
2023/05/06 05:49:10;;;;;;;20.92;14.32;;;;;;;19.56;61.78;101739.69;4983330;28;20547;-41
2023/05/06 05:51:35;;;;;;;21.17;13.98;;;;;;;19.89;60.13;101738.44;4986270;28;20256;-41
2023/05/06 05:54:01;;;;;;;21.20;15.02;;;;;;;20.00;60.05;101738.34;4985734;28;20039;-43
2023/05/06 05:56:26;;;;;;;22.23;15.43;;;;;;;20.38;58.27;101729.94;4982534;28;20125;-40
2023/05/06 05:58:52;;;;;;;22.08;15.82;;;;;;;21.01;56.85;101733.41;4986201;28;20069;-40
2023/05/06 06:01:17;;;;;;;22.13;16.00;;;;;;;20.62;56.99;101729.59;4983877;28;20113;-42
2023/05/06 06:03:43;;;;;;;22.02;16.02;;;;;;;20.59;57.16;101729.66;4987378;28;20070;-40
2023/05/06 06:06:08;;;;;;;23.40;16.48;;;;;;;20.63;57.62;101736.66;4983990;28;20176;-40
2023/05/06 06:08:34;;;;;;;22.63;15.32;;;;;;;21.45;57.41;101727.41;4985592;28;20038;-42
2023/05/06 06:11:02;;;;;;;23.75;17.20;;;;;;;22.04;53.40;101726.28;4985605;28;20093;-43
2023/05/06 06:13:28;;;;;;;23.42;16.38;;;;;;;22.63;51.15;101724.09;4982733;28;20350;-42
2023/05/06 06:15:55;;;;;;;25.35;17.92;;;;;;;22.98;49.03;101720.66;4986810;28;20030;-42
2023/05/06 06:18:20;;;;;;;24.10;17.48;;;;;;;23.41;48.65;101723.13;4983910;28;20035;-40
2023/05/06 06:20:45;;;;;;;24.92;17.55;;;;;;;23.28;49.01;101724.34;4986459;28;20044;-44
2023/05/06 06:23:11;;;;;;;29.05;18.58;;;;;;;23.36;49.09;101730.34;4980934;28;20030;-41
2023/05/06 06:25:36;;;;;;;30.73;18.75;;;;;;;22.82;49.46;101730.78;4985704;28;20034;-45
2023/05/06 06:28:01;;;;;;;28.60;18.77;;;;;;;22.11;51.49;101732.34;5006816;23;20046;-45
2023/05/06 06:30:27;;;;;;;27.48;18.75;;;;;;;22.20;52.01;101738.31;4981416;28;20074;-44
2023/05/06 06:32:53;;;;;;;28.27;19.98;;;;;;;21.76;52.71;101735.69;4984908;28;20071;-43
2023/05/06 06:35:19;;;;;;;33.55;20.83;;;;;;;20.94;55.60;101734.41;4980529;28;20057;-45
2023/05/06 06:37:45;;;;;;;33.92;21.23;;;;;;;20.93;56.14;101743.25;4984879;28;20034;-44
2023/05/06 06:40:11;;;;;;;35.92;21.98;;;;;;;20.85;56.11;101746.06;4981966;28;20030;-42
2023/05/06 06:42:37;;;;;;;35.92;22.08;;;;;;;20.89;56.25;101749.53;4985672;28;20026;-42
2023/05/06 06:45:02;;;;;;;31.60;20.75;;;;;;;21.02;55.94;101751.09;4985015;28;20378;-42
2023/05/06 06:47:28;;;;;;;31.20;21.92;;;;;;;21.25;55.70;101748.97;4981651;28;20065;-43
2023/05/06 06:49:53;;;;;;;35.03;20.67;;;;;;;21.66;53.50;101748.22;4984807;28;20034;-44
2023/05/06 06:52:18;;;;;;;32.92;20.60;;;;;;;21.82;52.79;101749.72;4981492;28;20046;-44
2023/05/06 06:54:44;;;;;;;28.92;19.42;;;;;;;22.08;53.02;101748.34;4985316;28;20038;-43
2023/05/06 06:57:10;;;;;;;32.78;20.05;;;;;;;22.28;51.83;101754.13;4981605;28;20080;-48
2023/05/06 06:59:35;;;;;;;31.25;20.00;;;;;;;22.39;52.11;101753.88;4985557;28;20030;-47
2023/05/06 07:02:01;;;;;;;29.40;19.08;;;;;;;23.02;50.69;101755.13;4984699;28;20031;-44
2023/05/06 07:04:26;;;;;;;31.23;19.65;;;;;;;23.39;50.42;101763.06;4981437;28;20069;-43
2023/05/06 07:06:52;;;;;;;28.10;18.40;;;;;;;23.88;47.87;101764.47;4985546;28;20042;-45
2023/05/06 07:09:17;;;;;;;29.42;17.92;;;;;;;23.80;48.27;101764.66;4981913;28;20038;-44
2023/05/06 07:11:42;;;;;;;25.88;15.88;;;;;;;23.20;48.57;101767.09;4984688;28;20086;-45
2023/05/06 07:14:08;;;;;;;23.45;13.13;;;;;;;22.84;48.28;101758.22;4985055;28;20070;-42
2023/05/06 07:16:33;;;;;;;22.77;14.43;;;;;;;23.21;47.66;101767.97;4980765;28;20035;-44
2023/05/06 07:19:00;;;;;;;23.73;15.15;;;;;;;23.27;49.11;101763.38;4984842;28;20096;-44
2023/05/06 07:21:25;;;;;;;22.45;13.32;;;;;;;24.27;47.60;101758.00;4981960;28;20037;-44
2023/05/06 07:23:51;;;;;;;19.55;11.73;;;;;;;25.24;42.75;101767.47;4986506;28;20038;-45
2023/05/06 07:26:16;;;;;;;21.50;12.50;;;;;;;25.92;41.68;101766.91;4984209;28;20044;-45
2023/05/06 07:28:41;;;;;;;20.73;12.77;;;;;;;26.35;42.25;101762.69;4988320;28;20389;-44
2023/05/06 07:31:07;;;;;;;21.05;12.20;;;;;;;27.43;39.70;101757.38;4988700;28;20053;-42
2023/05/06 07:33:32;;;;;;;18.92;11.00;;;;;;;27.48;37.65;101756.28;4984118;28;20084;-44
2023/05/06 07:35:57;;;;;;;17.75;10.18;;;;;;;27.92;36.96;101754.38;4983953;28;20045;-48
2023/05/06 07:38:23;;;;;;;11.82;6.80;;;;;;;27.97;37.40;101757.72;4986741;28;20054;-44
2023/05/06 07:40:50;;;;;;;15.77;7.88;;;;;;;26.98;38.91;101762.81;4973858;28;20030;-43
2023/05/06 07:43:15;;;;;;;14.60;7.68;;;;;;;27.45;37.15;101755.47;4984617;28;20165;-44
2023/05/06 07:45:40;;;;;;;12.20;7.13;;;;;;;27.66;38.25;101761.75;4981049;28;20117;-43
2023/05/06 07:48:06;;;;;;;15.43;9.05;;;;;;;27.97;35.70;101758.59;4985155;28;20053;-43
2023/05/06 07:50:31;;;;;;;20.50;8.45;;;;;;;26.77;38.79;101762.81;4982223;28;20050;-47
2023/05/06 07:52:57;;;;;;;16.52;9.80;;;;;;;26.39;40.77;101761.63;4984313;28;20038;-43
2023/05/06 07:55:22;;;;;;;16.90;9.88;;;;;;;28.63;35.75;101748.38;4993417;28;20087;-42
2023/05/06 07:57:48;;;;;;;16.80;9.25;;;;;;;28.55;35.74;101759.47;4979840;28;20074;-43
2023/05/06 08:00:14;;;;;;;15.25;8.60;;;;;;;28.19;36.13;101750.47;4981037;28;20034;-45
2023/05/06 08:02:42;;;;;;;15.15;9.20;;;;;;;27.94;35.62;101757.84;4981734;28;20057;-43
2023/05/06 08:05:12;;;;;;;13.20;8.18;;;;;;;29.03;34.07;101761.63;4984479;28;20496;-42
2023/05/06 08:07:39;;;;;;;13.82;5.82;;;;;;;29.66;32.32;101761.16;4980788;28;20034;-44
2023/05/06 08:10:06;;;;;;;15.73;6.97;;;;;;;28.07;35.78;101764.41;4984183;28;20035;-43
2023/05/06 08:12:31;;;;;;;15.88;7.32;;;;;;;26.87;37.15;101767.72;4980569;28;20049;-45
2023/05/06 08:14:57;;;;;;;15.82;8.00;;;;;;;26.99;38.36;101761.91;4983704;28;20209;-45
2023/05/06 08:17:22;;;;;;;18.08;9.73;;;;;;;27.35;36.59;101770.22;4982136;28;20034;-43
2023/05/06 08:19:47;;;;;;;15.75;8.75;;;;;;;27.05;37.75;101771.47;4985468;28;20049;-47
2023/05/06 08:22:13;;;;;;;17.20;8.30;;;;;;;25.76;41.25;101769.22;4991202;28;20173;-40
2023/05/06 08:24:39;;;;;;;13.48;7.22;;;;;;;25.95;39.72;101771.25;4980830;28;20053;-44
2023/05/06 08:27:04;;;;;;;13.43;7.90;;;;;;;26.15;38.67;101766.06;4984170;28;20042;-44
2023/05/06 08:29:29;;;;;;;17.08;8.38;;;;;;;25.47;40.17;101769.34;4984622;28;20124;-44
2023/05/06 08:31:54;;;;;;;17.23;9.77;;;;;;;25.34;40.60;101768.88;4983235;28;20046;-44
2023/05/06 08:34:21;;;;;;;19.55;11.05;;;;;;;24.54;43.16;101772.31;4985389;28;20400;-47
2023/05/06 08:36:47;;;;;;;18.77;11.15;;;;;;;24.70;43.12;101770.09;4985002;28;20038;-45
2023/05/06 08:39:13;;;;;;;23.58;12.60;;;;;;;24.64;44.77;101770.28;4981959;28;20064;-45
2023/05/06 08:41:40;;;;;;;20.92;11.90;;;;;;;25.00;43.10;101770.94;4983641;28;20560;-46
2023/05/06 08:44:07;;;;;;;18.48;9.30;;;;;;;24.64;42.13;101772.94;4979896;28;20038;-44
2023/05/06 08:46:33;;;;;;;19.25;11.32;;;;;;;24.58;43.53;101776.63;4979485;28;20038;-45
2023/05/06 08:48:58;;;;;;;15.05;7.35;;;;;;;24.45;40.98;101769.94;4982419;28;20042;-42
2023/05/06 08:51:28;;;;;;;15.02;7.55;;;;;;;24.39;41.56;101770.13;4979348;28;20034;-48
2023/05/06 08:53:54;;;;;;;16.77;7.60;;;;;;;24.65;41.27;101769.31;4982471;28;20509;-42
2023/05/06 08:56:23;;;;;;;13.20;5.95;;;;;;;24.88;42.51;101768.63;4978843;28;20057;-42
2023/05/06 08:58:50;;;;;;;12.38;4.70;;;;;;;24.67;40.18;101773.69;4982438;28;20090;-42
2023/05/06 09:01:16;;;;;;;10.75;5.50;;;;;;;25.13;40.90;101769.59;4974432;28;20026;-44
2023/05/06 09:03:42;;;;;;;13.93;6.03;;;;;;;25.02;40.83;101771.75;4981149;28;20488;-46
2023/05/06 09:06:09;;;;;;;11.80;4.53;;;;;;;24.93;41.16;101775.59;4979717;28;20026;-45
2023/05/06 09:08:35;;;;;;;12.18;3.90;;;;;;;25.01;40.16;101765.53;4983083;28;20382;-46
2023/05/06 09:11:00;;;;;;;13.63;5.10;;;;;;;24.83;40.41;101767.88;4982225;28;20121;-44
2023/05/06 09:13:26;;;;;;;15.43;6.93;;;;;;;24.89;41.28;101773.91;4979322;28;20180;-44
2023/05/06 09:15:53;;;;;;;14.98;7.30;;;;;;;25.18;41.11;101770.34;4977113;28;20043;-44
2023/05/06 09:18:18;;;;;;;14.38;7.32;;;;;;;25.17;41.31;101765.03;4979881;28;20038;-44
2023/05/06 09:20:48;;;;;;;16.33;8.77;;;;;;;24.83;41.25;101762.53;4982864;28;20401;-44
2023/05/06 09:23:15;;;;;;;15.48;8.40;;;;;;;25.38;41.37;101762.50;4978360;28;20037;-44
2023/05/06 09:25:43;;;;;;;16.80;8.27;;;;;;;25.42;41.18;101763.31;4982422;28;20081;-47
2023/05/06 09:28:10;;;;;;;16.05;8.02;;;;;;;25.58;40.71;101761.00;4979877;28;20489;-43
2023/05/06 09:30:40;;;;;;;14.80;7.82;;;;;;;24.95;42.28;101759.50;4982452;28;20591;-44
2023/05/06 09:33:06;;;;;;;13.68;7.50;;;;;;;25.39;41.98;101761.59;4977605;28;20038;-46
2023/05/06 09:35:39;;;;;;;17.65;8.30;;;;;;;25.22;42.17;101755.09;4985093;28;20460;-45
2023/05/06 09:38:05;;;;;;;16.10;7.85;;;;;;;25.01;41.60;101760.19;4979101;28;20038;-42
2023/05/06 09:40:31;;;;;;;13.60;5.45;;;;;;;25.18;40.40;101746.31;4990140;28;20027;-58
2023/05/06 09:42:56;;;;;;;10.65;4.43;;;;;;;25.19;40.76;101753.38;4977789;28;20053;-43
2023/05/06 09:45:23;;;;;;;12.23;5.28;;;;;;;25.67;39.34;101753.56;4966572;28;20118;-47
2023/05/06 09:47:48;;;;;;;11.45;5.18;;;;;;;25.60;39.31;101749.34;4981084;28;20072;-42
2023/05/06 09:50:14;;;;;;;11.52;5.10;;;;;;;24.25;41.87;101743.00;4973479;28;20485;-43
2023/05/06 09:52:43;;;;;;;13.90;4.93;;;;;;;23.30;44.32;101757.97;4977754;28;20628;-43
2023/05/06 09:55:10;;;;;;;13.02;4.70;;;;;;;24.12;43.91;101747.78;4978699;28;20034;-45
2023/05/06 09:57:36;;;;;;;13.77;6.22;;;;;;;24.06;43.79;101747.97;4979198;28;20521;-43
2023/05/06 10:00:05;;;;;;;12.27;6.18;;;;;;;24.95;42.02;101747.06;4982398;28;20054;-43
2023/05/06 10:02:31;;;;;;;12.88;6.80;;;;;;;24.78;42.49;101746.69;4978737;28;20022;-45
2023/05/06 10:04:57;;;;;;;14.48;7.03;;;;;;;24.77;42.11;101744.06;4982204;28;20104;-46
2023/05/06 10:07:24;;;;;;;12.98;6.40;;;;;;;24.52;43.60;101747.50;4979117;28;20122;-43
2023/05/06 10:09:50;;;;;;;14.63;7.10;;;;;;;23.73;44.96;101752.41;4984799;28;20039;-47
2023/05/06 10:12:16;;;;;;;13.52;6.95;;;;;;;24.34;43.92;101740.06;4986528;28;20073;-43
2023/05/06 10:14:42;;;;;;;16.35;6.50;;;;;;;25.05;42.18;101745.84;4978318;28;20045;-45
2023/05/06 10:17:08;;;;;;;12.75;6.30;;;;;;;25.54;41.42;101733.50;4986226;28;20030;-43
2023/05/06 10:19:35;;;;;;;15.13;6.70;;;;;;;25.25;40.53;101731.81;4982563;28;20062;-45
2023/05/06 10:22:13;;;;;;;11.30;6.65;;;;;;;25.11;40.98;101735.91;4981817;28;20042;-46
2023/05/06 10:24:50;;;;;;;11.98;6.30;;;;;;;25.43;41.19;101725.84;4984881;28;20456;-42
2023/05/06 10:27:21;;;;;;;12.88;6.15;;;;;;;25.85;40.11;101733.31;4980656;28;20042;-46
2023/05/06 10:29:47;;;;;;;16.92;7.22;;;;;;;25.21;41.79;101729.31;4980301;28;20408;-43
2023/05/06 10:32:13;;;;;;;13.52;6.95;;;;;;;25.67;40.09;101726.84;4980205;28;23629;-43
2023/05/06 10:34:48;;;;;;;11.57;6.38;;;;;;;26.07;39.90;101722.69;4985199;28;20066;-45
2023/05/06 10:37:14;;;;;;;14.00;7.15;;;;;;;26.06;39.67;101718.28;4981543;28;20026;-45
2023/05/06 10:39:40;;;;;;;14.95;7.65;;;;;;;25.98;39.39;101723.06;4984729;28;20026;-42
2023/05/06 10:42:09;;;;;;;16.23;7.82;;;;;;;25.63;40.33;101719.84;4980756;28;20397;-43
2023/05/06 10:44:56;;;;;;;14.32;7.38;;;;;;;26.05;40.58;101720.06;4984855;28;20122;-42
2023/05/06 10:47:21;;;;;;;13.63;7.70;;;;;;;25.89;39.80;101718.03;4980970;28;20508;-44
2023/05/06 10:50:22;;;;;;;11.77;6.82;;;;;;;26.28;39.63;101713.91;4985213;28;20034;-42
2023/05/06 10:52:50;;;;;;;14.52;7.82;;;;;;;26.39;39.36;101706.34;4985489;28;20045;-45
2023/05/06 10:55:29;;;;;;;13.07;7.70;;;;;;;26.49;40.13;101706.84;4982094;28;20451;-43
2023/05/06 10:58:15;;;;;;;12.13;7.35;;;;;;;25.90;38.83;101706.44;4985219;28;20039;-44
2023/05/06 11:00:40;;;;;;;12.23;7.43;;;;;;;26.31;39.03;101710.22;4983227;28;20086;-44
2023/05/06 11:03:10;;;;;;;12.45;7.35;;;;;;;26.32;37.96;101707.50;4980878;28;20034;-44
2023/05/06 11:05:50;;;;;;;13.77;6.65;;;;;;;26.55;38.36;101704.78;4984353;28;20031;-47
2023/05/06 11:08:22;;;;;;;12.02;7.20;;;;;;;26.84;37.48;101702.72;4979039;28;20030;-43